createdAt,value
2017-06-30T00:00:52.105Z,16.56
2017-06-30T00:02:01.046Z,16.52
2017-06-30T00:03:10.051Z,16.45
2017-06-30T00:04:19.248Z,16.38
2017-06-30T00:05:28.321Z,16.39
2017-06-30T00:06:37.264Z,16.42
2017-06-30T00:07:46.344Z,16.38
2017-06-30T00:08:55.359Z,16.49
2017-06-30T00:10:04.804Z,16.45
2017-06-30T00:11:13.802Z,16.43
2017-06-30T00:12:22.799Z,16.39
2017-06-30T00:13:31.897Z,16.31
2017-06-30T00:14:40.888Z,16.33
2017-06-30T00:15:50.230Z,16.34
2017-06-30T00:16:59.294Z,16.33
2017-06-30T00:18:08.477Z,16.35
2017-06-30T00:19:17.460Z,16.28
2017-06-30T00:20:26.538Z,16.34
2017-06-30T00:21:35.738Z,16.34
2017-06-30T00:22:45.026Z,16.33
2017-06-30T00:23:54.028Z,16.41
2017-06-30T00:25:03.006Z,16.34
2017-06-30T00:26:11.954Z,16.35
2017-06-30T00:27:21.219Z,16.34
2017-06-30T00:28:30.416Z,16.33
2017-06-30T00:29:39.739Z,16.28
2017-06-30T00:30:49.094Z,16.27
2017-06-30T00:31:58.264Z,16.2
2017-06-30T00:33:07.672Z,16.24
2017-06-30T00:34:16.772Z,16.25
2017-06-30T00:35:25.726Z,16.25
2017-06-30T00:36:34.836Z,16.35
2017-06-30T00:37:43.782Z,16.25
2017-06-30T00:38:53.080Z,16.25
2017-06-30T00:40:02.038Z,16.21
2017-06-30T00:41:11.005Z,16.17
2017-06-30T00:42:20.230Z,16.23
2017-06-30T00:43:29.286Z,16.15
2017-06-30T00:44:38.743Z,16.15
2017-06-30T00:45:47.894Z,16.2
2017-06-30T00:46:56.907Z,16.23
2017-06-30T00:48:06.040Z,16.2
2017-06-30T00:49:15.131Z,16.21
2017-06-30T00:50:24.369Z,16.2
2017-06-30T00:51:33.599Z,16.17
2017-06-30T00:52:42.548Z,16.2
2017-06-30T00:53:51.637Z,16.23
2017-06-30T00:55:00.602Z,16.17
2017-06-30T00:56:10.293Z,16.15
2017-06-30T00:57:19.255Z,16.14
2017-06-30T00:58:28.196Z,16.2
2017-06-30T00:59:37.142Z,16.21
2017-06-30T01:00:46.538Z,16.17
2017-06-30T01:01:55.737Z,16.17
2017-06-30T01:03:05.020Z,16.21
2017-06-30T01:04:13.969Z,16.2
2017-06-30T01:05:23.225Z,16.15
2017-06-30T01:06:32.249Z,16.17
2017-06-30T01:07:41.524Z,16.07
2017-06-30T01:08:50.800Z,16.2
2017-06-30T01:09:59.834Z,16.07
2017-06-30T01:11:09.114Z,16.14
2017-06-30T01:12:18.222Z,16.17
2017-06-30T01:13:27.445Z,16.14
2017-06-30T01:14:36.579Z,16.04
2017-06-30T01:15:45.965Z,16.14
2017-06-30T01:16:55.067Z,16.11
2017-06-30T01:18:04.034Z,16.17
2017-06-30T01:19:13.672Z,16.11
2017-06-30T01:20:22.909Z,16.09
2017-06-30T01:21:32.107Z,16.12
2017-06-30T01:22:41.449Z,16.14
2017-06-30T01:23:50.808Z,16.17
2017-06-30T01:24:59.999Z,16.14
2017-06-30T01:26:09.056Z,16.21
2017-06-30T01:27:18.300Z,16.09
2017-06-30T01:28:27.367Z,16.07
2017-06-30T01:29:36.379Z,16.23
2017-06-30T01:30:45.725Z,16.14
2017-06-30T01:31:54.673Z,16.12
2017-06-30T01:33:03.705Z,16.14
2017-06-30T01:34:12.752Z,16.15
2017-06-30T01:35:21.703Z,16.14
2017-06-30T01:36:30.903Z,16.11
2017-06-30T01:37:39.919Z,16.04
2017-06-30T01:38:48.915Z,16.15
2017-06-30T01:39:57.860Z,16.17
2017-06-30T01:41:07.226Z,16.09
2017-06-30T01:42:16.417Z,16.14
2017-06-30T01:43:25.431Z,16.14
2017-06-30T01:44:34.419Z,16.17
2017-06-30T01:45:43.367Z,16.27
2017-06-30T01:46:52.344Z,16.21
2017-06-30T01:48:01.829Z,16.24
2017-06-30T01:49:11.116Z,16.23
2017-06-30T01:50:20.236Z,16.21
2017-06-30T01:51:29.181Z,16.27
2017-06-30T01:52:38.230Z,16.23
2017-06-30T01:53:47.527Z,16.23
2017-06-30T01:54:56.478Z,16.12
2017-06-30T01:56:05.424Z,16.25
2017-06-30T01:57:14.382Z,16.2
2017-06-30T01:58:23.338Z,16.17
2017-06-30T01:59:32.531Z,16.2
2017-06-30T02:00:41.806Z,16.23
2017-06-30T02:01:50.754Z,16.25
2017-06-30T02:02:59.699Z,16.27
2017-06-30T02:04:08.993Z,16.2
2017-06-30T02:05:18.315Z,16.17
2017-06-30T02:06:27.253Z,16.14
2017-06-30T02:07:36.194Z,16.07
2017-06-30T02:08:45.148Z,16.21
2017-06-30T02:09:54.088Z,16.15
2017-06-30T02:11:03.273Z,16.04
2017-06-30T02:12:12.218Z,16.09
2017-06-30T02:13:21.173Z,16.14
2017-06-30T02:14:30.109Z,16.15
2017-06-30T02:15:39.058Z,16.14
2017-06-30T02:16:48.255Z,16.12
2017-06-30T02:17:57.283Z,16.04
2017-06-30T02:19:06.566Z,16.09
2017-06-30T02:20:15.526Z,16.11
2017-06-30T02:21:24.471Z,16.2
2017-06-30T02:22:33.747Z,16.15
2017-06-30T02:23:42.691Z,16.08
2017-06-30T02:24:51.627Z,16.08
2017-06-30T02:26:00.569Z,16.04
2017-06-30T02:27:09.599Z,16.17
2017-06-30T02:28:18.806Z,16.09
2017-06-30T02:29:27.752Z,16.21
2017-06-30T02:30:36.692Z,16.17
2017-06-30T02:31:45.650Z,16.17
2017-06-30T02:32:54.590Z,16.21
2017-06-30T02:34:03.876Z,16.15
2017-06-30T02:35:12.862Z,16.15
2017-06-30T02:36:21.804Z,16.14
2017-06-30T02:37:30.757Z,16.2
2017-06-30T02:38:39.704Z,16.15
2017-06-30T02:39:48.898Z,16.07
2017-06-30T02:40:57.843Z,16.05
2017-06-30T02:42:06.793Z,16.02
2017-06-30T02:43:15.757Z,15.94
2017-06-30T02:44:24.697Z,15.97
2017-06-30T02:45:33.881Z,16.04
2017-06-30T02:46:42.830Z,16.02
2017-06-30T02:47:51.812Z,16.01
2017-06-30T02:49:00.777Z,16.11
2017-06-30T02:50:09.724Z,16.17
2017-06-30T02:51:18.914Z,16.15
2017-06-30T02:52:27.866Z,16.15
2017-06-30T02:53:36.803Z,16.05
2017-06-30T02:54:45.746Z,16.15
2017-06-30T02:55:54.820Z,16.21
2017-06-30T02:57:04.051Z,16.17
2017-06-30T02:58:13.326Z,16.08
2017-06-30T02:59:22.361Z,16.08
2017-06-30T03:00:31.330Z,16.21
2017-06-30T03:01:40.274Z,16.14
2017-06-30T03:02:49.462Z,16.15
2017-06-30T03:03:58.402Z,16.12
2017-06-30T03:05:07.339Z,16.17
2017-06-30T03:06:16.286Z,16.09
2017-06-30T03:07:25.229Z,16.17
2017-06-30T03:08:34.434Z,16.12
2017-06-30T03:09:43.397Z,16.05
2017-06-30T03:10:52.372Z,16.05
2017-06-30T03:12:01.317Z,16.04
2017-06-30T03:13:10.259Z,16.17
2017-06-30T03:14:19.501Z,16.11
2017-06-30T03:15:28.448Z,16
2017-06-30T03:16:37.392Z,16.02
2017-06-30T03:17:46.343Z,16.12
2017-06-30T03:18:55.279Z,16.12
2017-06-30T03:20:04.484Z,16.2
2017-06-30T03:21:13.427Z,16.07
2017-06-30T03:22:22.365Z,16.15
2017-06-30T03:23:31.310Z,16.07
2017-06-30T03:24:40.254Z,16.08
2017-06-30T03:25:49.447Z,16.15
2017-06-30T03:26:58.392Z,16.23
2017-06-30T03:28:07.343Z,16.14
2017-06-30T03:29:16.282Z,16.11
2017-06-30T03:30:25.225Z,16.09
2017-06-30T03:31:34.431Z,16.04
2017-06-30T03:32:43.369Z,16.14
2017-06-30T03:33:52.324Z,16.09
2017-06-30T03:35:01.277Z,16.08
2017-06-30T03:36:10.229Z,16.15
2017-06-30T03:37:19.433Z,16.09
2017-06-30T03:38:28.379Z,16.08
2017-06-30T03:39:37.324Z,16.23
2017-06-30T03:40:46.272Z,16.08
2017-06-30T03:41:55.218Z,16.09
2017-06-30T03:43:04.551Z,16.11
2017-06-30T03:44:13.498Z,16.15
2017-06-30T03:45:22.443Z,16.17
2017-06-30T03:46:31.472Z,16.15
2017-06-30T03:47:40.420Z,16.09
2017-06-30T03:48:49.738Z,16.17
2017-06-30T03:49:58.734Z,16.12
2017-06-30T03:51:07.675Z,16.12
2017-06-30T03:52:16.628Z,16.12
2017-06-30T03:53:25.658Z,16.11
2017-06-30T03:54:34.911Z,16.14
2017-06-30T03:55:43.853Z,16.2
2017-06-30T03:56:53.128Z,16.12
2017-06-30T03:58:02.085Z,16.2
2017-06-30T03:59:11.354Z,16.14
2017-06-30T04:00:20.735Z,16.14
2017-06-30T04:01:29.677Z,16.14
2017-06-30T04:02:38.709Z,16.11
2017-06-30T04:03:47.658Z,16.02
2017-06-30T04:04:56.684Z,16.17
2017-06-30T04:06:05.882Z,16.17
2017-06-30T04:07:14.818Z,16.17
2017-06-30T04:08:23.757Z,16.02
2017-06-30T04:09:32.700Z,16.12
2017-06-30T04:10:41.969Z,16.25
2017-06-30T04:11:51.277Z,16.11
2017-06-30T04:13:00.225Z,16.21
2017-06-30T04:14:09.174Z,16.08
2017-06-30T04:15:18.160Z,16.04
2017-06-30T04:16:27.107Z,16.07
2017-06-30T04:17:36.297Z,16.01
2017-06-30T04:18:45.256Z,16.05
2017-06-30T04:19:54.278Z,16.05
2017-06-30T04:21:03.233Z,16.08
2017-06-30T04:22:12.181Z,16.07
2017-06-30T04:23:21.706Z,16.17
2017-06-30T04:24:30.644Z,16.05
2017-06-30T04:25:39.587Z,16
2017-06-30T04:26:48.547Z,16.02
2017-06-30T04:27:57.498Z,15.97
2017-06-30T04:29:06.683Z,16.01
2017-06-30T04:30:15.634Z,15.96
2017-06-30T04:31:24.707Z,16.01
2017-06-30T04:32:33.656Z,16.02
2017-06-30T04:33:42.595Z,16.01
2017-06-30T04:34:51.833Z,16.04
2017-06-30T04:36:00.789Z,16.04
2017-06-30T04:37:09.741Z,16.01
2017-06-30T04:38:18.686Z,15.94
2017-06-30T04:39:27.633Z,16.07
2017-06-30T04:40:36.819Z,16.02
2017-06-30T04:41:45.767Z,16.01
2017-06-30T04:42:54.720Z,16.05
2017-06-30T04:44:03.658Z,16.01
2017-06-30T04:45:12.606Z,15.94
2017-06-30T04:46:21.885Z,15.9
2017-06-30T04:47:30.841Z,15.84
2017-06-30T04:48:39.780Z,15.92
2017-06-30T04:49:48.733Z,15.87
2017-06-30T04:50:57.676Z,15.83
2017-06-30T04:52:06.925Z,15.89
2017-06-30T04:53:15.872Z,15.8
2017-06-30T04:54:24.825Z,15.76
2017-06-30T04:55:33.770Z,15.72
2017-06-30T04:56:42.796Z,15.84
2017-06-30T04:57:51.986Z,15.86
2017-06-30T04:59:00.928Z,15.89
2017-06-30T05:00:09.869Z,15.8
2017-06-30T05:01:18.810Z,15.84
2017-06-30T05:02:27.765Z,15.78
2017-06-30T05:03:37.276Z,15.83
2017-06-30T05:04:46.228Z,15.92
2017-06-30T05:05:55.183Z,15.92
2017-06-30T05:07:04.138Z,15.86
2017-06-30T05:08:13.082Z,15.86
2017-06-30T05:09:22.367Z,15.93
2017-06-30T05:10:31.314Z,15.83
2017-06-30T05:11:40.254Z,15.71
2017-06-30T05:12:49.205Z,15.76
2017-06-30T05:13:58.255Z,15.84
2017-06-30T05:15:07.452Z,15.86
2017-06-30T05:16:16.398Z,15.84
2017-06-30T05:17:25.425Z,15.78
2017-06-30T05:18:34.712Z,15.74
2017-06-30T05:19:44.305Z,15.89
2017-06-30T05:20:53.601Z,15.72
2017-06-30T05:22:02.549Z,15.87
2017-06-30T05:23:11.493Z,15.89
2017-06-30T05:24:20.441Z,15.84
2017-06-30T05:25:29.378Z,15.71
2017-06-30T05:26:38.620Z,15.69
2017-06-30T05:27:47.603Z,15.71
2017-06-30T05:28:56.550Z,15.67
2017-06-30T05:30:05.583Z,15.71
2017-06-30T05:31:14.537Z,15.74
2017-06-30T05:32:23.746Z,15.78
2017-06-30T05:33:32.692Z,15.67
2017-06-30T05:34:41.715Z,15.68
2017-06-30T05:35:50.665Z,15.71
2017-06-30T05:36:59.650Z,15.68
2017-06-30T05:38:08.861Z,15.78
2017-06-30T05:39:17.802Z,15.72
2017-06-30T05:40:26.750Z,15.72
2017-06-30T05:41:35.702Z,15.69
2017-06-30T05:42:44.644Z,15.54
2017-06-30T05:43:53.838Z,15.53
2017-06-30T05:45:02.789Z,15.46
2017-06-30T05:46:11.728Z,15.47
2017-06-30T05:47:20.677Z,15.43
2017-06-30T05:48:29.620Z,15.57
2017-06-30T05:49:38.879Z,15.51
2017-06-30T05:50:47.824Z,15.56
2017-06-30T05:51:56.810Z,15.68
2017-06-30T05:53:05.761Z,15.72
2017-06-30T05:54:14.703Z,15.68
2017-06-30T05:55:23.895Z,15.54
2017-06-30T05:56:32.850Z,15.72
2017-06-30T05:57:41.784Z,15.62
2017-06-30T05:58:50.786Z,15.67
2017-06-30T05:59:59.724Z,15.65
2017-06-30T06:01:09.149Z,15.67
2017-06-30T06:02:18.350Z,15.67
2017-06-30T06:03:27.328Z,15.69
2017-06-30T06:04:36.335Z,15.71
2017-06-30T06:05:45.547Z,15.69
2017-06-30T06:06:54.871Z,15.69
2017-06-30T06:08:03.986Z,15.74
2017-06-30T06:09:13.100Z,15.69
2017-06-30T06:10:22.314Z,15.69
2017-06-30T06:11:31.334Z,15.72
2017-06-30T06:12:40.639Z,15.72
2017-06-30T06:13:49.779Z,15.71
2017-06-30T06:14:58.808Z,15.68
2017-06-30T06:16:07.867Z,15.69
2017-06-30T06:17:16.921Z,15.68
2017-06-30T06:18:26.397Z,15.69
2017-06-30T06:19:35.542Z,15.74
2017-06-30T06:20:44.524Z,15.78
2017-06-30T06:21:53.582Z,15.75
2017-06-30T06:23:02.590Z,15.76
2017-06-30T06:24:12.097Z,15.82
2017-06-30T06:25:21.432Z,15.72
2017-06-30T06:26:30.558Z,15.69
2017-06-30T06:27:39.507Z,15.75
2017-06-30T06:28:48.545Z,15.69
2017-06-30T06:29:57.791Z,15.68
2017-06-30T06:31:06.781Z,15.71
2017-06-30T06:32:15.728Z,15.65
2017-06-30T06:33:24.756Z,15.68
2017-06-30T06:34:33.749Z,15.75
2017-06-30T06:35:43.000Z,15.71
2017-06-30T06:36:51.951Z,15.68
2017-06-30T06:38:00.914Z,15.71
2017-06-30T06:39:09.860Z,15.65
2017-06-30T06:40:19.065Z,15.67
2017-06-30T06:41:28.333Z,15.49
2017-06-30T06:42:37.289Z,15.46
2017-06-30T06:43:46.247Z,15.46
2017-06-30T06:44:55.515Z,15.49
2017-06-30T06:46:04.459Z,15.46
2017-06-30T06:47:13.722Z,15.56
2017-06-30T06:48:23.057Z,15.68
2017-06-30T06:49:32.016Z,15.72
2017-06-30T06:50:41.058Z,15.59
2017-06-30T06:51:50.062Z,15.67
2017-06-30T06:52:59.377Z,15.68
2017-06-30T06:54:08.466Z,15.56
2017-06-30T06:55:17.410Z,15.54
2017-06-30T06:56:26.439Z,15.54
2017-06-30T06:57:35.384Z,15.53
2017-06-30T06:58:44.629Z,15.62
2017-06-30T06:59:53.570Z,15.74
2017-06-30T07:01:02.524Z,15.68
2017-06-30T07:02:11.500Z,15.67
2017-06-30T07:03:20.445Z,15.67
2017-06-30T07:04:29.688Z,15.51
2017-06-30T07:05:38.625Z,15.59
2017-06-30T07:06:47.845Z,15.59
2017-06-30T07:07:57.710Z,15.64
2017-06-30T07:09:06.654Z,15.53
2017-06-30T07:10:15.965Z,15.51
2017-06-30T07:11:25.134Z,15.62
2017-06-30T07:12:34.117Z,15.59
2017-06-30T07:13:43.111Z,15.6
2017-06-30T07:14:52.084Z,15.56
2017-06-30T07:16:01.324Z,15.53
2017-06-30T07:17:10.360Z,15.65
2017-06-30T07:18:19.337Z,15.72
2017-06-30T07:19:28.314Z,15.72
2017-06-30T07:20:37.260Z,15.76
2017-06-30T07:21:46.641Z,15.71
2017-06-30T07:22:55.792Z,15.72
2017-06-30T07:24:04.825Z,15.72
2017-06-30T07:25:13.847Z,15.71
2017-06-30T07:26:22.891Z,15.72
2017-06-30T07:27:32.557Z,15.56
2017-06-30T07:28:41.576Z,15.67
2017-06-30T07:29:50.560Z,15.67
2017-06-30T07:30:59.544Z,15.72
2017-06-30T07:32:08.575Z,15.65
2017-06-30T07:33:17.848Z,15.69
2017-06-30T07:34:26.824Z,15.68
2017-06-30T07:35:35.786Z,15.69
2017-06-30T07:36:44.736Z,15.68
2017-06-30T07:37:53.941Z,15.69
2017-06-30T07:39:03.196Z,15.69
2017-06-30T07:40:12.141Z,15.72
2017-06-30T07:41:21.217Z,15.78
2017-06-30T07:42:30.251Z,15.8
2017-06-30T07:43:39.200Z,15.78
2017-06-30T07:44:48.517Z,15.69
2017-06-30T07:45:57.464Z,15.69
2017-06-30T07:47:06.418Z,15.72
2017-06-30T07:48:15.404Z,15.68
2017-06-30T07:49:24.520Z,15.74
2017-06-30T07:50:33.827Z,15.69
2017-06-30T07:51:42.991Z,15.74
2017-06-30T07:52:52.013Z,15.8
2017-06-30T07:54:01.009Z,15.82
2017-06-30T07:55:09.990Z,15.82
2017-06-30T07:56:19.190Z,15.84
2017-06-30T07:57:28.216Z,15.82
2017-06-30T07:58:37.298Z,15.83
2017-06-30T07:59:46.322Z,15.74
2017-06-30T08:00:55.413Z,15.76
2017-06-30T08:02:04.778Z,15.82
2017-06-30T08:03:13.753Z,15.89
2017-06-30T08:04:22.857Z,15.76
2017-06-30T08:05:31.801Z,15.72
2017-06-30T08:06:40.789Z,15.67
2017-06-30T08:07:50.079Z,15.69
2017-06-30T08:08:59.030Z,15.76
2017-06-30T08:10:08.050Z,15.76
2017-06-30T08:11:17.085Z,15.75
2017-06-30T08:12:26.142Z,15.82
2017-06-30T08:13:35.437Z,15.86
2017-06-30T08:14:44.461Z,15.72
2017-06-30T08:15:53.493Z,15.83
2017-06-30T08:17:02.476Z,15.86
2017-06-30T08:18:11.462Z,15.8
2017-06-30T08:19:20.742Z,15.84
2017-06-30T08:20:29.856Z,15.92
2017-06-30T08:21:38.878Z,15.9
2017-06-30T08:22:47.982Z,15.96
2017-06-30T08:23:56.946Z,15.94
2017-06-30T08:25:06.221Z,15.9
2017-06-30T08:26:15.220Z,15.9
2017-06-30T08:27:25.048Z,15.87
2017-06-30T08:28:38.683Z,16.05
2017-06-30T08:29:48.102Z,16.05
2017-06-30T08:30:57.740Z,16.05
2017-06-30T08:32:06.956Z,16.07
2017-06-30T08:33:16.145Z,16.07
2017-06-30T08:34:25.389Z,16.15
2017-06-30T08:35:35.078Z,16.11
2017-06-30T08:36:44.452Z,16.12
2017-06-30T08:37:54.086Z,16.11
2017-06-30T08:39:03.055Z,16.14
2017-06-30T08:40:12.022Z,16.05
2017-06-30T08:41:20.992Z,16.11
2017-06-30T08:42:30.275Z,16.14
2017-06-30T08:43:39.909Z,16.14
2017-06-30T08:44:48.886Z,16.11
2017-06-30T08:45:58.012Z,16.12
2017-06-30T08:47:06.994Z,16.21
2017-06-30T08:48:16.642Z,16.11
2017-06-30T08:49:25.620Z,16.02
2017-06-30T08:50:34.586Z,15.93
2017-06-30T08:51:43.682Z,16
2017-06-30T08:52:52.650Z,15.97
2017-06-30T08:54:01.883Z,16.01
2017-06-30T08:55:10.849Z,15.89
2017-06-30T08:56:19.821Z,15.94
2017-06-30T08:57:28.792Z,15.89
2017-06-30T08:58:37.766Z,16
2017-06-30T08:59:46.988Z,15.87
2017-06-30T09:00:55.964Z,15.97
2017-06-30T09:02:04.942Z,15.96
2017-06-30T09:03:14.074Z,16.02
2017-06-30T09:04:23.461Z,16.09
2017-06-30T09:05:32.843Z,16.04
2017-06-30T09:06:41.860Z,16.09
2017-06-30T09:07:50.838Z,16.24
2017-06-30T09:09:00.129Z,16.25
2017-06-30T09:10:09.088Z,16.2
2017-06-30T09:11:18.295Z,16.2
2017-06-30T09:12:27.328Z,16.17
2017-06-30T09:13:36.362Z,16.17
2017-06-30T09:14:45.318Z,16.08
2017-06-30T09:15:54.352Z,16.12
2017-06-30T09:17:03.548Z,16.07
2017-06-30T09:18:12.495Z,16.11
2017-06-30T09:19:22.947Z,16.12
2017-06-30T09:20:32.811Z,16.05
2017-06-30T09:21:41.751Z,16.12
2017-06-30T09:22:50.998Z,16.09
2017-06-30T09:23:59.943Z,16.14
2017-06-30T09:25:08.929Z,16.21
2017-06-30T09:26:17.879Z,16.15
2017-06-30T09:27:26.829Z,16.24
2017-06-30T09:28:36.040Z,16.2
2017-06-30T09:29:45.302Z,16.17
2017-06-30T09:30:55.779Z,16.3
2017-06-30T09:32:08.435Z,16.31
2017-06-30T09:33:20.745Z,16.3
2017-06-30T09:34:33.566Z,16.24
2017-06-30T09:35:46.282Z,16.21
2017-06-30T09:36:58.616Z,16.24
2017-06-30T09:38:10.145Z,16.24
2017-06-30T09:39:19.569Z,16.3
2017-06-30T09:40:28.792Z,16.33
2017-06-30T09:41:38.334Z,16.38
2017-06-30T09:42:47.791Z,16.34
2017-06-30T09:43:58.121Z,16.25
2017-06-30T09:45:07.650Z,16.15
2017-06-30T09:46:17.806Z,16.21
2017-06-30T09:47:27.515Z,16.24
2017-06-30T09:48:38.085Z,16.33
2017-06-30T09:49:47.535Z,16.27
2017-06-30T09:50:57.194Z,16.3
2017-06-30T09:52:07.094Z,16.35
2017-06-30T09:53:16.546Z,16.34
2017-06-30T09:54:25.800Z,16.33
2017-06-30T09:55:35.240Z,16.34
2017-06-30T09:56:44.621Z,16.28
2017-06-30T09:57:54.676Z,16.35
2017-06-30T09:59:04.004Z,16.35
2017-06-30T10:00:13.418Z,16.34
2017-06-30T10:01:22.973Z,16.43
2017-06-30T10:02:32.437Z,16.46
2017-06-30T10:03:41.995Z,16.48
2017-06-30T10:04:52.009Z,16.39
2017-06-30T10:06:01.588Z,16.39
2017-06-30T10:07:11.151Z,16.46
2017-06-30T10:08:21.671Z,16.45
2017-06-30T10:09:30.842Z,16.49
2017-06-30T10:10:40.493Z,16.49
2017-06-30T10:11:50.012Z,16.42
2017-06-30T10:12:59.880Z,16.48
2017-06-30T10:14:09.835Z,16.41
2017-06-30T10:15:19.638Z,16.48
2017-06-30T10:16:29.828Z,16.41
2017-06-30T10:17:40.059Z,16.57
2017-06-30T10:18:49.487Z,16.58
2017-06-30T10:19:59.380Z,16.76
2017-06-30T10:21:09.172Z,16.68
2017-06-30T10:22:19.636Z,16.7
2017-06-30T10:23:29.773Z,16.68
2017-06-30T10:24:39.841Z,16.66
2017-06-30T10:25:49.880Z,16.68
2017-06-30T10:26:59.497Z,16.68
2017-06-30T10:28:09.021Z,16.71
2017-06-30T10:29:18.782Z,16.6
2017-06-30T10:30:28.447Z,16.61
2017-06-30T10:31:38.266Z,16.57
2017-06-30T10:32:47.906Z,16.5
2017-06-30T10:33:57.309Z,16.56
2017-06-30T10:35:06.779Z,16.63
2017-06-30T10:36:16.187Z,16.67
2017-06-30T10:37:25.805Z,16.56
2017-06-30T10:38:35.144Z,16.61
2017-06-30T10:39:44.834Z,16.66
2017-06-30T10:40:54.216Z,16.64
2017-06-30T10:42:03.548Z,16.73
2017-06-30T10:43:13.378Z,16.56
2017-06-30T10:44:23.133Z,16.56
2017-06-30T10:45:32.386Z,16.61
2017-06-30T10:46:41.673Z,16.63
2017-06-30T10:47:51.268Z,16.66
2017-06-30T10:49:00.848Z,16.66
2017-06-30T10:50:10.167Z,16.71
2017-06-30T10:51:19.951Z,16.67
2017-06-30T10:52:29.423Z,16.73
2017-06-30T10:53:38.940Z,16.81
2017-06-30T10:54:48.189Z,16.67
2017-06-30T10:55:57.135Z,16.7
2017-06-30T10:57:06.416Z,16.56
2017-06-30T10:58:15.366Z,16.6
2017-06-30T10:59:24.316Z,16.57
2017-06-30T11:00:33.724Z,16.6
2017-06-30T11:01:42.668Z,16.56
2017-06-30T11:02:51.970Z,16.68
2017-06-30T11:04:00.983Z,16.68
2017-06-30T11:05:09.925Z,16.78
2017-06-30T11:06:19.229Z,16.76
2017-06-30T11:07:28.219Z,16.78
2017-06-30T11:08:37.209Z,16.79
2017-06-30T11:09:46.249Z,16.73
2017-06-30T11:10:55.267Z,16.64
2017-06-30T11:12:04.468Z,16.76
2017-06-30T11:13:13.538Z,16.73
2017-06-30T11:14:22.532Z,16.76
2017-06-30T11:15:31.564Z,16.88
2017-06-30T11:16:40.509Z,16.83
2017-06-30T11:17:49.715Z,16.79
2017-06-30T11:18:58.710Z,16.93
2017-06-30T11:20:07.685Z,16.83
2017-06-30T11:21:16.694Z,16.85
2017-06-30T11:22:25.638Z,16.97
2017-06-30T11:23:35.221Z,16.94
2017-06-30T11:24:44.179Z,16.94
2017-06-30T11:25:53.319Z,17.16
2017-06-30T11:27:02.429Z,17.14
2017-06-30T11:28:11.755Z,17.18
2017-06-30T11:29:21.240Z,17.28
2017-06-30T11:30:30.234Z,17.33
2017-06-30T11:31:39.600Z,17.34
2017-06-30T11:32:48.638Z,17.38
2017-06-30T11:33:57.585Z,17.46
2017-06-30T11:35:06.999Z,17.38
2017-06-30T11:36:16.097Z,17.49
2017-06-30T11:37:25.302Z,17.49
2017-06-30T11:38:34.254Z,17.44
2017-06-30T11:39:43.212Z,17.62
2017-06-30T11:40:52.551Z,17.59
2017-06-30T11:42:01.579Z,17.54
2017-06-30T11:43:10.618Z,17.4
2017-06-30T11:44:19.562Z,17.41
2017-06-30T11:45:28.566Z,17.38
2017-06-30T11:46:37.844Z,17.22
2017-06-30T11:47:46.828Z,17.12
2017-06-30T11:48:55.860Z,17.19
2017-06-30T11:50:04.899Z,17.19
2017-06-30T11:51:13.844Z,17.15
2017-06-30T11:52:23.319Z,17.14
2017-06-30T11:53:32.695Z,17.23
2017-06-30T11:54:41.646Z,17.21
2017-06-30T11:55:51.435Z,17.31
2017-06-30T11:57:01.024Z,17.19
2017-06-30T11:58:10.551Z,17.28
2017-06-30T11:59:19.743Z,17.26
2017-06-30T12:00:28.901Z,17.23
2017-06-30T12:01:38.162Z,17.26
2017-06-30T12:02:47.408Z,17.36
2017-06-30T12:03:56.851Z,17.33
2017-06-30T12:05:05.871Z,17.28
2017-06-30T12:06:14.975Z,17.37
2017-06-30T12:07:23.931Z,17.33
2017-06-30T12:08:32.879Z,17.16
2017-06-30T12:09:42.124Z,17.23
2017-06-30T12:10:51.129Z,17.21
2017-06-30T12:12:00.235Z,17.16
2017-06-30T12:13:09.413Z,17.12
2017-06-30T12:14:18.496Z,17.19
2017-06-30T12:15:27.705Z,17.41
2017-06-30T12:16:36.652Z,17.58
2017-06-30T12:17:45.608Z,17.63
2017-06-30T12:18:54.598Z,17.58
2017-06-30T12:20:03.540Z,17.55
2017-06-30T12:21:12.882Z,17.66
2017-06-30T12:22:21.830Z,17.74
2017-06-30T12:23:30.786Z,17.68
2017-06-30T12:24:39.815Z,17.71
2017-06-30T12:25:48.845Z,17.68
2017-06-30T12:26:58.157Z,17.71
2017-06-30T12:28:07.114Z,17.72
2017-06-30T12:29:16.333Z,17.78
2017-06-30T12:30:25.298Z,17.84
2017-06-30T12:31:34.303Z,17.97
2017-06-30T12:32:43.699Z,17.84
2017-06-30T12:33:52.691Z,17.96
2017-06-30T12:35:01.641Z,18.05
2017-06-30T12:36:10.592Z,18.05
2017-06-30T12:37:19.574Z,17.95
2017-06-30T12:38:29.214Z,17.99
2017-06-30T12:39:38.305Z,17.97
2017-06-30T12:40:47.390Z,18.11
2017-06-30T12:41:56.412Z,18.17
2017-06-30T12:43:05.568Z,18.07
2017-06-30T12:44:14.832Z,18.1
2017-06-30T12:45:24.766Z,18.11
2017-06-30T12:46:33.731Z,17.99
2017-06-30T12:47:42.801Z,17.81
2017-06-30T12:48:52.095Z,17.74
2017-06-30T12:50:01.467Z,17.72
2017-06-30T12:51:10.576Z,17.82
2017-06-30T12:52:19.656Z,17.77
2017-06-30T12:53:28.677Z,17.79
2017-06-30T12:54:37.664Z,17.71
2017-06-30T12:55:46.857Z,17.74
2017-06-30T12:56:55.923Z,17.77
2017-06-30T12:58:04.922Z,17.78
2017-06-30T12:59:13.960Z,17.87
2017-06-30T13:00:23.908Z,17.95
2017-06-30T13:01:33.107Z,17.95
2017-06-30T13:02:42.592Z,18.03
2017-06-30T13:03:51.620Z,18.12
2017-06-30T13:05:00.574Z,18.12
2017-06-30T13:06:09.524Z,18.21
2017-06-30T13:07:18.725Z,18.23
2017-06-30T13:08:27.670Z,18.27
2017-06-30T13:09:36.612Z,18.37
2017-06-30T13:10:45.562Z,18.3
2017-06-30T13:11:54.511Z,18.41
2017-06-30T13:13:03.762Z,18.47
2017-06-30T13:14:12.714Z,18.32
2017-06-30T13:15:21.670Z,18.45
2017-06-30T13:16:30.718Z,18.48
2017-06-30T13:17:39.694Z,18.47
2017-06-30T13:18:48.933Z,18.5
2017-06-30T13:19:57.917Z,18.54
2017-06-30T13:21:06.904Z,18.47
2017-06-30T13:22:15.883Z,18.48
2017-06-30T13:23:24.865Z,18.51
2017-06-30T13:24:34.138Z,18.66
2017-06-30T13:25:43.102Z,18.6
2017-06-30T13:26:52.072Z,18.6
2017-06-30T13:28:01.045Z,18.66
2017-06-30T13:29:10.021Z,18.57
2017-06-30T13:30:19.236Z,18.58
2017-06-30T13:31:28.202Z,18.66
2017-06-30T13:32:37.163Z,18.8
2017-06-30T13:33:46.148Z,18.75
2017-06-30T13:34:55.120Z,18.84
2017-06-30T13:36:04.347Z,18.75
2017-06-30T13:37:13.311Z,18.82
2017-06-30T13:38:22.377Z,18.7
2017-06-30T13:39:31.347Z,18.75
2017-06-30T13:40:40.309Z,18.73
2017-06-30T13:41:49.665Z,18.7
2017-06-30T13:42:58.647Z,18.72
2017-06-30T13:44:07.617Z,18.65
2017-06-30T13:45:16.592Z,18.63
2017-06-30T13:46:25.569Z,18.76
2017-06-30T13:47:34.838Z,18.82
2017-06-30T13:48:43.809Z,18.82
2017-06-30T13:49:52.787Z,18.85
2017-06-30T13:51:01.767Z,18.84
2017-06-30T13:52:10.822Z,18.98
2017-06-30T13:53:20.049Z,18.82
2017-06-30T13:54:29.012Z,18.85
2017-06-30T13:55:38.071Z,18.91
2017-06-30T13:56:47.047Z,18.94
2017-06-30T13:57:56.015Z,18.99
2017-06-30T13:59:05.302Z,19.06
2017-06-30T14:00:14.368Z,18.99
2017-06-30T14:01:23.338Z,19.14
2017-06-30T14:02:32.317Z,19.18
2017-06-30T14:03:41.285Z,19.14
2017-06-30T14:04:50.646Z,19.25
2017-06-30T14:05:59.625Z,19.14
2017-06-30T14:07:08.604Z,19.18
2017-06-30T14:08:17.566Z,19.13
2017-06-30T14:09:26.545Z,19.06
2017-06-30T14:10:35.778Z,19.02
2017-06-30T14:11:44.829Z,18.99
2017-06-30T14:12:53.885Z,18.98
2017-06-30T14:14:02.942Z,19.04
2017-06-30T14:15:11.912Z,19.02
2017-06-30T14:16:21.185Z,18.95
2017-06-30T14:17:30.156Z,18.76
2017-06-30T14:18:39.113Z,18.63
2017-06-30T14:19:48.095Z,18.6
2017-06-30T14:20:57.075Z,18.47
2017-06-30T14:22:06.350Z,18.3
2017-06-30T14:23:15.322Z,18.07
2017-06-30T14:24:24.295Z,18.11
2017-06-30T14:25:33.264Z,17.97
2017-06-30T14:26:42.560Z,18
2017-06-30T14:27:51.790Z,17.9
2017-06-30T14:29:00.770Z,17.81
2017-06-30T14:30:09.751Z,17.81
2017-06-30T14:31:18.720Z,17.79
2017-06-30T14:32:27.689Z,17.87
2017-06-30T14:33:36.956Z,17.89
2017-06-30T14:34:45.928Z,17.86
2017-06-30T14:35:54.901Z,17.81
2017-06-30T14:37:03.869Z,17.86
2017-06-30T14:38:12.841Z,17.86
2017-06-30T14:39:22.122Z,17.86
2017-06-30T14:40:31.285Z,17.81
2017-06-30T14:41:40.260Z,17.74
2017-06-30T14:42:49.302Z,17.62
2017-06-30T14:43:58.258Z,17.71
2017-06-30T14:45:07.510Z,17.75
2017-06-30T14:46:16.460Z,17.75
2017-06-30T14:47:25.429Z,17.82
2017-06-30T14:48:34.750Z,17.84
2017-06-30T14:49:43.703Z,17.84
2017-06-30T14:50:52.908Z,17.79
2017-06-30T14:52:01.868Z,17.74
2017-06-30T14:53:11.143Z,17.74